Bird Island, Minnesota
Current Conditions -  °F | °C
As of 1:53 AM on Saturday 20 Dec 2014 (Local Time) from KOVL Reporting Station
Haze Haze  
Wind Chill: 24°   Ceiling: 1100
Heat Index: 32°   Visibility: 5mi
Dew Point: 30°   Wind: 9mph
Humidity: 93%   Direction: 190°S
Pressure: 30.09"   Gusts: NA
Location:  44.77°N, 94.9°W
Report Text: KOVL 200753Z AUTO 19008KT 5SM BR OVC011 00/M01 A3009 RMK AO2
Loading
Personal Weather Stations






























Interactive Weather Map New forecast layout! Learn more

10-Day Weather Forecast

Advertisements
Track Severe Weather on mobile